createdAt,value
2017-03-28T00:01:14.401Z,66.213
2017-03-28T00:04:06.745Z,66.785
2017-03-28T00:07:00.933Z,67.036
2017-03-28T00:09:55.202Z,66.412
2017-03-28T00:12:51.086Z,66.153
2017-03-28T00:15:43.488Z,67.985
2017-03-28T00:18:37.584Z,67.765
2017-03-28T00:21:31.665Z,67.744
2017-03-28T00:24:25.767Z,69.079
2017-03-28T00:27:19.913Z,69.588
2017-03-28T00:30:14.087Z,68.631
2017-03-28T00:33:08.075Z,69.629
2017-03-28T00:36:02.201Z,69.615
2017-03-28T00:38:56.273Z,70.499
2017-03-28T00:41:50.354Z,70.263
2017-03-28T00:44:44.470Z,70.952
2017-03-28T00:47:38.486Z,70.582
2017-03-28T00:50:32.541Z,70.403
2017-03-28T00:53:26.629Z,71.367
2017-03-28T00:56:20.657Z,71.208
2017-03-28T00:59:14.727Z,71.588
2017-03-28T01:02:08.811Z,72.427
2017-03-28T01:05:02.907Z,72.554
2017-03-28T01:07:56.944Z,72.700
2017-03-28T01:10:50.975Z,73.107
2017-03-28T01:13:45.036Z,72.841
2017-03-28T01:16:39.159Z,72.395
2017-03-28T01:19:33.288Z,72.651
2017-03-28T01:22:27.419Z,73.673
2017-03-28T01:25:23.058Z,73.245
2017-03-28T01:28:15.364Z,74.103
2017-03-28T01:31:09.405Z,73.716
2017-03-28T01:34:03.363Z,74.808
2017-03-28T01:36:57.251Z,75.153
2017-03-28T01:39:52.923Z,74.787
2017-03-28T01:42:46.993Z,74.196
2017-03-28T01:45:41.156Z,74.643
2017-03-28T01:48:33.411Z,75.121
2017-03-28T01:51:27.370Z,75.618
2017-03-28T01:54:23.224Z,75.671
2017-03-28T01:57:17.308Z,75.179
2017-03-28T02:00:11.380Z,75.707
2017-03-28T02:03:03.648Z,75.625
2017-03-28T02:05:59.537Z,75.711
2017-03-28T02:08:51.764Z,76.760
2017-03-28T02:11:45.823Z,76.566
2017-03-28T02:14:39.975Z,76.599
2017-03-28T02:17:34.043Z,76.200
2017-03-28T02:20:28.056Z,76.632
2017-03-28T02:23:22.107Z,76.506
2017-03-28T02:26:17.812Z,77.003
2017-03-28T02:29:10.211Z,77.458
2017-03-28T02:32:04.297Z,77.778
2017-03-28T02:34:58.390Z,77.985
2017-03-28T02:37:54.209Z,77.939
2017-03-28T02:40:46.542Z,78.733
2017-03-28T02:43:40.525Z,78.934
2017-03-28T02:46:34.558Z,79.222
2017-03-28T02:49:28.658Z,78.727
2017-03-28T02:52:22.727Z,80.362
2017-03-28T02:55:16.783Z,78.956
2017-03-28T02:58:10.754Z,79.972
2017-03-28T03:01:06.581Z,79.913
2017-03-28T03:04:00.577Z,79.360
2017-03-28T03:06:52.929Z,79.403
2017-03-28T03:09:48.722Z,79.462
2017-03-28T03:12:42.986Z,79.478
2017-03-28T03:15:35.251Z,79.306
2017-03-28T03:18:29.405Z,80.595
2017-03-28T03:21:23.435Z,81.460
2017-03-28T03:24:19.194Z,80.502
2017-03-28T03:27:11.739Z,80.672
2017-03-28T03:30:07.603Z,80.368
2017-03-28T03:33:00.039Z,80.208
2017-03-28T03:35:53.998Z,80.301
2017-03-28T03:38:47.947Z,81.028
2017-03-28T03:41:42.054Z,81.042
2017-03-28T03:44:36.205Z,80.915
2017-03-28T03:47:30.334Z,80.886
2017-03-28T03:50:24.492Z,81.259
2017-03-28T03:53:18.585Z,79.583
2017-03-28T03:56:12.615Z,80.814
2017-03-28T03:59:06.735Z,80.427
2017-03-28T04:02:00.730Z,80.830
2017-03-28T04:04:56.459Z,82.095
2017-03-28T04:07:48.820Z,82.571
2017-03-28T04:10:42.921Z,82.161
2017-03-28T04:13:37.777Z,81.960
2017-03-28T04:16:30.959Z,81.965
2017-03-28T04:19:25.079Z,83.164
2017-03-28T04:22:19.110Z,82.845
2017-03-28T04:25:13.237Z,82.635
2017-03-28T04:28:07.346Z,83.406
2017-03-28T04:31:03.085Z,83.557
2017-03-28T04:33:55.455Z,83.241
2017-03-28T04:36:49.288Z,82.885
2017-03-28T04:39:43.199Z,82.721
2017-03-28T04:42:38.944Z,83.359
2017-03-28T04:45:31.274Z,83.066
2017-03-28T04:48:25.263Z,83.022
2017-03-28T04:51:19.274Z,82.950
2017-03-28T04:54:13.152Z,83.122
2017-03-28T04:57:07.079Z,82.793
2017-03-28T05:00:01.148Z,82.533
2017-03-28T05:02:57.433Z,82.479
2017-03-28T05:05:51.408Z,82.624
2017-03-28T05:08:43.740Z,83.192
2017-03-28T05:11:37.786Z,82.507
2017-03-28T05:14:31.849Z,82.250
2017-03-28T05:17:27.513Z,83.049
2017-03-28T05:20:19.949Z,83.196
2017-03-28T05:23:14.027Z,82.807
2017-03-28T05:26:08.008Z,82.403
2017-03-28T05:29:02.138Z,79.323
2017-03-28T05:31:56.372Z,76.488
2017-03-28T05:34:52.285Z,74.429
2017-03-28T05:37:44.664Z,74.310
2017-03-28T05:40:40.431Z,74.049
2017-03-28T05:43:34.647Z,74.159
2017-03-28T05:46:27.185Z,70.866
2017-03-28T05:49:21.552Z,60.156
2017-03-28T05:52:15.870Z,55.181
2017-03-28T05:55:10.326Z,56.153
2017-03-28T05:58:04.766Z,58.673
2017-03-28T06:00:59.031Z,61.974
2017-03-28T06:03:53.446Z,63.378
2017-03-28T06:06:49.593Z,64.585
2017-03-28T06:09:42.097Z,64.457
2017-03-28T06:12:38.140Z,62.690
2017-03-28T06:15:30.813Z,60.538
2017-03-28T06:18:27.010Z,61.317
2017-03-28T06:21:21.326Z,60.604
2017-03-28T06:24:14.102Z,59.363
2017-03-28T06:27:08.545Z,58.890
2017-03-28T06:30:03.141Z,56.038
2017-03-28T06:32:57.831Z,50.205
2017-03-28T06:35:52.699Z,42.253
2017-03-28T06:38:47.769Z,34.268
2017-03-28T06:41:43.104Z,30.186
2017-03-28T06:44:38.399Z,26.207
2017-03-28T06:47:33.752Z,23.447
2017-03-28T06:50:29.295Z,20.337
2017-03-28T06:53:24.815Z,19.659
2017-03-28T06:56:20.159Z,20.061
2017-03-28T06:59:15.650Z,16.749
2017-03-28T07:02:11.039Z,17.629
2017-03-28T07:05:06.415Z,18.424
2017-03-28T07:08:01.908Z,18.129
2017-03-28T07:10:57.537Z,18.610
2017-03-28T07:13:53.177Z,20.340
2017-03-28T07:16:50.556Z,19.591
2017-03-28T07:19:44.311Z,22.617
2017-03-28T07:22:39.813Z,22.053
2017-03-28T07:25:37.378Z,23.568
2017-03-28T07:28:31.152Z,22.893
2017-03-28T07:31:26.797Z,21.430
2017-03-28T07:34:22.482Z,21.962
2017-03-28T07:37:18.094Z,20.940
2017-03-28T07:40:13.640Z,20.264
2017-03-28T07:43:09.197Z,18.521
2017-03-28T07:46:04.989Z,20.031
2017-03-28T07:49:00.531Z,20.488
2017-03-28T07:51:56.324Z,20.998
2017-03-28T07:54:51.766Z,16.247
2017-03-28T07:57:47.374Z,17.646
2017-03-28T08:00:42.827Z,19.215
2017-03-28T08:03:38.379Z,17.146
2017-03-28T08:06:33.918Z,16.608
2017-03-28T08:09:29.469Z,18.323
2017-03-28T08:12:24.896Z,18.650
2017-03-28T08:15:20.292Z,15.316
2017-03-28T08:18:15.650Z,15.563
2017-03-28T08:21:11.196Z,14.179
2017-03-28T08:24:06.420Z,13.273
2017-03-28T08:27:01.934Z,14.191
2017-03-28T08:29:57.327Z,12.642
2017-03-28T08:32:53.014Z,11.791
2017-03-28T08:35:48.571Z,15.954
2017-03-28T08:38:44.085Z,11.826
2017-03-28T08:41:39.670Z,11.504
2017-03-28T08:44:35.204Z,16.105
2017-03-28T08:47:32.392Z,15.930
2017-03-28T08:50:25.938Z,12.393
2017-03-28T08:53:23.196Z,13.737
2017-03-28T08:56:16.977Z,14.982
2017-03-28T08:59:12.334Z,12.116
2017-03-28T09:02:09.472Z,16.496
2017-03-28T09:05:03.195Z,14.783
2017-03-28T09:07:58.876Z,12.312
2017-03-28T09:10:54.500Z,14.007
2017-03-28T09:13:50.281Z,13.125
2017-03-28T09:16:46.031Z,11.005
2017-03-28T09:19:41.918Z,13.517
2017-03-28T09:22:37.663Z,10.624
2017-03-28T09:25:33.633Z,6.699
2017-03-28T09:28:29.567Z,4.243
2017-03-28T09:31:25.307Z,5.072
2017-03-28T09:34:20.957Z,5.526
2017-03-28T09:37:16.677Z,5.141
2017-03-28T09:40:12.362Z,7.581
2017-03-28T09:43:07.777Z,0.592
2017-03-28T09:46:03.100Z,0.177
2017-03-28T09:48:58.356Z,2.712
2017-03-28T09:51:53.389Z,1.426
2017-03-28T09:54:48.410Z,3.869
2017-03-28T09:57:43.575Z,5.623
2017-03-28T10:00:39.164Z,6.392
2017-03-28T10:03:36.694Z,6.612
2017-03-28T10:06:30.493Z,5.820
2017-03-28T10:09:25.838Z,0.000
2017-03-28T10:12:21.344Z,3.559
2017-03-28T10:15:18.929Z,3.715
2017-03-28T10:18:12.900Z,2.664
2017-03-28T10:21:08.590Z,1.319
2017-03-28T10:24:03.983Z,0.000
2017-03-28T10:26:58.672Z,0.000
2017-03-28T10:29:54.698Z,6.486
2017-03-28T10:32:47.082Z,11.530
2017-03-28T10:35:41.631Z,15.843
2017-03-28T10:38:36.228Z,17.151
2017-03-28T10:41:30.866Z,17.281
2017-03-28T10:44:25.679Z,18.677
2017-03-28T10:47:20.613Z,20.746
2017-03-28T10:50:15.765Z,23.085
2017-03-28T10:53:10.991Z,23.329
2017-03-28T10:56:06.074Z,23.283
2017-03-28T10:59:01.031Z,24.248
2017-03-28T11:01:56.244Z,25.184
2017-03-28T11:04:51.521Z,25.450
2017-03-28T11:07:46.621Z,26.472
2017-03-28T11:10:41.814Z,25.701
2017-03-28T11:13:36.996Z,24.713
2017-03-28T11:16:32.097Z,25.371
2017-03-28T11:19:27.115Z,24.948
2017-03-28T11:22:22.218Z,25.354
2017-03-28T11:25:17.226Z,24.074
2017-03-28T11:28:12.378Z,25.939
2017-03-28T11:31:07.326Z,25.722
2017-03-28T11:34:02.460Z,26.308
2017-03-28T11:36:57.530Z,24.783
2017-03-28T11:39:52.482Z,27.521
2017-03-28T11:42:47.631Z,26.657
2017-03-28T11:45:42.692Z,27.093
2017-03-28T11:51:32.796Z,26.295
2017-03-28T11:54:27.977Z,27.721
2017-03-28T11:57:23.041Z,28.322
2017-03-28T12:00:18.018Z,27.099
2017-03-28T12:03:13.085Z,27.044
2017-03-28T12:06:08.133Z,27.133
2017-03-28T12:09:03.188Z,27.393
2017-03-28T12:11:58.354Z,27.651
2017-03-28T12:14:53.434Z,26.207
2017-03-28T12:17:48.423Z,26.414
2017-03-28T12:20:43.479Z,27.097
2017-03-28T12:23:40.169Z,27.119
2017-03-28T12:26:33.462Z,26.832
2017-03-28T12:29:28.505Z,26.986
2017-03-28T12:32:23.504Z,26.154
2017-03-28T12:35:20.248Z,26.152
2017-03-28T12:38:13.306Z,25.650
2017-03-28T12:41:08.029Z,26.017
2017-03-28T12:44:02.880Z,25.101
2017-03-28T12:46:57.696Z,26.306
2017-03-28T12:49:52.595Z,26.427
2017-03-28T12:52:47.475Z,24.836
2017-03-28T12:55:42.326Z,25.023
2017-03-28T12:58:37.216Z,24.862
2017-03-28T13:01:31.990Z,25.238
2017-03-28T13:04:26.783Z,24.597
2017-03-28T13:07:21.689Z,26.434
2017-03-28T13:10:16.563Z,24.773
2017-03-28T13:13:11.510Z,25.659
2017-03-28T13:16:06.338Z,25.407
2017-03-28T13:19:01.258Z,25.361
2017-03-28T13:21:56.182Z,28.565
2017-03-28T13:24:50.970Z,26.576
2017-03-28T13:27:45.913Z,26.632
2017-03-28T13:30:40.764Z,25.966
2017-03-28T13:33:35.911Z,25.916
2017-03-28T13:36:32.604Z,26.513
2017-03-28T13:39:25.787Z,25.585
2017-03-28T13:42:20.596Z,28.347
2017-03-28T13:45:15.494Z,26.750
2017-03-28T13:48:10.204Z,25.526
2017-03-28T13:51:05.043Z,25.987
2017-03-28T13:53:59.942Z,25.647
2017-03-28T13:56:54.871Z,26.042
2017-03-28T13:59:49.854Z,26.866
2017-03-28T14:02:44.800Z,26.766
2017-03-28T14:05:39.673Z,26.920
2017-03-28T14:08:34.477Z,27.154
2017-03-28T14:11:29.465Z,27.059
2017-03-28T14:14:24.255Z,26.490
2017-03-28T14:17:19.202Z,29.989
2017-03-28T14:20:14.095Z,26.280
2017-03-28T14:23:08.846Z,28.883
2017-03-28T14:26:03.668Z,26.773
2017-03-28T14:28:58.571Z,27.181
2017-03-28T14:31:53.377Z,25.846
2017-03-28T14:34:48.345Z,26.327
2017-03-28T14:37:43.229Z,26.811
2017-03-28T14:40:38.224Z,28.161
2017-03-28T14:43:32.900Z,26.704
2017-03-28T14:46:27.787Z,27.049
2017-03-28T14:49:22.673Z,27.250
2017-03-28T14:52:17.668Z,27.392
2017-03-28T14:55:12.582Z,27.785
2017-03-28T14:58:07.469Z,25.748
2017-03-28T15:01:02.361Z,25.752
2017-03-28T15:03:57.320Z,25.762
2017-03-28T15:06:52.209Z,24.873
2017-03-28T15:09:47.506Z,25.526
2017-03-28T15:12:42.314Z,26.353
2017-03-28T15:15:37.214Z,24.772
2017-03-28T15:18:31.971Z,25.435
2017-03-28T15:21:26.907Z,25.421
2017-03-28T15:24:21.792Z,26.076
2017-03-28T15:27:16.748Z,25.228
2017-03-28T15:30:11.575Z,26.189
2017-03-28T15:33:06.436Z,23.964
2017-03-28T15:36:01.327Z,23.898
2017-03-28T15:38:56.226Z,26.020
2017-03-28T15:41:51.107Z,23.002
2017-03-28T15:44:45.939Z,23.995
2017-03-28T15:47:40.810Z,24.046
2017-03-28T15:50:35.665Z,24.536
2017-03-28T15:53:30.447Z,25.354
2017-03-28T15:56:25.427Z,25.055
2017-03-28T15:59:20.017Z,25.446
2017-03-28T16:02:14.919Z,24.871
2017-03-28T16:05:09.818Z,25.342
2017-03-28T16:08:04.680Z,26.001
2017-03-28T16:10:59.569Z,24.926
2017-03-28T16:13:54.522Z,25.333
2017-03-28T16:16:49.555Z,26.545
2017-03-28T16:19:44.461Z,26.134
2017-03-28T16:22:39.220Z,25.637
2017-03-28T16:25:34.263Z,26.191
2017-03-28T16:28:28.934Z,26.303
2017-03-28T16:31:23.878Z,26.559
2017-03-28T16:34:18.692Z,28.306
2017-03-28T16:37:13.424Z,26.193
2017-03-28T16:40:08.223Z,27.546
2017-03-28T16:43:02.850Z,27.820
2017-03-28T16:45:57.581Z,28.240
2017-03-28T16:48:52.423Z,29.626
2017-03-28T16:51:47.173Z,29.771
2017-03-28T16:54:41.860Z,29.779
2017-03-28T16:57:36.493Z,29.529
2017-03-28T17:00:31.329Z,30.206
2017-03-28T17:03:26.062Z,29.669
2017-03-28T17:06:20.792Z,30.651
2017-03-28T17:09:15.447Z,29.989
2017-03-28T17:12:10.117Z,32.512
2017-03-28T17:15:04.841Z,31.527
2017-03-28T17:17:59.399Z,31.204
2017-03-28T17:20:54.040Z,33.125
2017-03-28T17:23:48.727Z,33.426
2017-03-28T17:26:43.459Z,35.526
2017-03-28T17:29:38.064Z,33.600
2017-03-28T17:32:32.521Z,36.641
2017-03-28T17:35:27.190Z,34.814
2017-03-28T17:38:21.667Z,34.976
2017-03-28T17:41:16.241Z,34.550
2017-03-28T17:44:10.654Z,35.967
2017-03-28T17:47:05.223Z,35.219
2017-03-28T17:49:59.662Z,38.448
2017-03-28T17:52:54.398Z,35.888
2017-03-28T17:55:50.782Z,36.750
2017-03-28T17:58:43.324Z,38.627
2017-03-28T18:01:37.853Z,36.761
2017-03-28T18:04:32.289Z,38.996
2017-03-28T18:07:26.729Z,37.305
2017-03-28T18:10:21.184Z,36.988
2017-03-28T18:13:15.646Z,37.885
2017-03-28T18:16:10.180Z,38.501
2017-03-28T18:19:04.675Z,41.530
2017-03-28T18:22:01.030Z,37.456
2017-03-28T18:24:53.566Z,39.369
2017-03-28T18:27:47.926Z,38.954
2017-03-28T18:30:42.292Z,38.751
2017-03-28T18:33:36.720Z,39.090
2017-03-28T18:36:31.187Z,40.749
2017-03-28T18:39:25.521Z,41.179
2017-03-28T18:42:20.016Z,41.432
2017-03-28T18:45:14.543Z,40.888
2017-03-28T18:48:09.005Z,41.120
2017-03-28T18:51:03.508Z,41.011
2017-03-28T18:53:57.875Z,40.577
2017-03-28T18:56:52.176Z,42.397
2017-03-28T18:59:46.483Z,41.230
2017-03-28T19:02:40.910Z,40.875
2017-03-28T19:05:35.286Z,41.383
2017-03-28T19:08:29.606Z,43.078
2017-03-28T19:11:23.942Z,41.985
2017-03-28T19:14:18.204Z,43.428
2017-03-28T19:17:12.496Z,42.335
2017-03-28T19:20:06.670Z,42.875
2017-03-28T19:23:01.019Z,44.000
2017-03-28T19:25:55.179Z,43.617
2017-03-28T19:28:49.386Z,44.820
2017-03-28T19:31:43.546Z,44.006
2017-03-28T19:34:37.623Z,45.018
2017-03-28T19:37:31.890Z,44.895
2017-03-28T19:40:26.051Z,44.791
2017-03-28T19:43:20.249Z,45.394
2017-03-28T19:46:14.441Z,45.637
2017-03-28T19:49:08.645Z,45.478
2017-03-28T19:52:02.774Z,45.982
2017-03-28T19:54:57.070Z,44.500
2017-03-28T19:57:51.260Z,44.525
2017-03-28T20:00:45.530Z,45.366
2017-03-28T20:03:41.427Z,45.610
2017-03-28T20:06:33.894Z,46.056
2017-03-28T20:09:28.027Z,46.611
2017-03-28T20:12:22.172Z,46.322
2017-03-28T20:15:16.291Z,47.645
2017-03-28T20:18:10.903Z,46.394
2017-03-28T20:21:04.702Z,48.387
2017-03-28T20:23:58.746Z,47.856
2017-03-28T20:26:52.828Z,47.352
2017-03-28T20:29:46.956Z,47.270
2017-03-28T20:32:41.125Z,48.443
2017-03-28T20:35:35.188Z,48.235
2017-03-28T20:38:29.301Z,48.144
2017-03-28T20:41:23.352Z,47.932
2017-03-28T20:44:17.458Z,48.798
2017-03-28T20:47:11.597Z,49.541
2017-03-28T20:52:59.831Z,49.542
2017-03-28T20:55:53.854Z,49.343
2017-03-28T20:58:47.994Z,49.274
2017-03-28T21:01:42.088Z,49.577
2017-03-28T21:04:36.012Z,50.367
2017-03-28T21:07:31.845Z,50.798
2017-03-28T21:10:24.218Z,48.242
2017-03-28T21:13:18.230Z,50.747
2017-03-28T21:16:14.160Z,51.296
2017-03-28T21:19:06.374Z,50.715
2017-03-28T21:22:02.240Z,51.761
2017-03-28T21:24:54.561Z,49.736
2017-03-28T21:27:48.770Z,53.043
2017-03-28T21:30:42.941Z,51.147
2017-03-28T21:33:37.005Z,53.093
2017-03-28T21:36:30.983Z,53.342
2017-03-28T21:39:25.057Z,53.775
2017-03-28T21:42:19.095Z,52.210
2017-03-28T21:45:13.215Z,54.108
2017-03-28T21:48:07.332Z,53.347
2017-03-28T21:51:01.423Z,53.495
2017-03-28T21:53:55.545Z,54.225
2017-03-28T21:56:49.662Z,54.132
2017-03-28T21:59:43.780Z,55.997
2017-03-28T22:02:37.811Z,54.984
2017-03-28T22:05:31.959Z,53.796
2017-03-28T22:08:25.944Z,54.765
2017-03-28T22:11:20.045Z,55.082
2017-03-28T22:14:14.171Z,57.296
2017-03-28T22:17:08.120Z,56.153
2017-03-28T22:20:02.248Z,56.250
2017-03-28T22:22:56.367Z,57.234
2017-03-28T22:25:50.382Z,56.786
2017-03-28T22:28:44.344Z,56.698
2017-03-28T22:31:40.111Z,56.873
2017-03-28T22:34:32.507Z,57.224
2017-03-28T22:37:26.477Z,57.091
2017-03-28T22:40:20.482Z,56.874
2017-03-28T22:43:14.504Z,57.169
2017-03-28T22:46:08.488Z,58.262
2017-03-28T22:49:02.587Z,58.195
2017-03-28T22:51:56.676Z,58.931
2017-03-28T22:54:50.676Z,59.569
2017-03-28T22:57:44.696Z,56.499
2017-03-28T23:00:38.731Z,59.866
2017-03-28T23:03:33.090Z,60.444
2017-03-28T23:06:27.094Z,60.321
2017-03-28T23:09:21.089Z,60.177
2017-03-28T23:12:15.058Z,60.476
2017-03-28T23:15:09.077Z,55.717
2017-03-28T23:18:03.421Z,60.265
2017-03-28T23:20:57.427Z,58.884
2017-03-28T23:23:51.456Z,60.908
2017-03-28T23:26:45.354Z,59.571
2017-03-28T23:29:39.402Z,61.125
2017-03-28T23:32:33.382Z,61.187
2017-03-28T23:35:27.437Z,62.167
2017-03-28T23:38:21.412Z,62.254
2017-03-28T23:41:15.306Z,62.117
2017-03-28T23:44:10.009Z,62.635
2017-03-28T23:47:03.237Z,62.221
2017-03-28T23:49:57.142Z,62.631
2017-03-28T23:52:50.987Z,61.750
2017-03-28T23:55:44.783Z,62.687
2017-03-28T23:58:38.637Z,61.170
